sensor_id;sensor_type;location;lat;lon;timestamp;P1;durP1;ratioP1;P2;durP2;ratioP2
61569;SDS011;47462;59.172;17.196;2022-09-13T00:01:17;4.35;;;1.67;;
61569;SDS011;47462;59.172;17.196;2022-09-13T00:03:43;2.92;;;1.67;;
61569;SDS011;47462;59.172;17.196;2022-09-13T00:06:15;2.88;;;1.73;;
61569;SDS011;47462;59.172;17.196;2022-09-13T00:08:42;7.28;;;1.60;;
61569;SDS011;47462;59.172;17.196;2022-09-13T00:11:16;3.08;;;1.75;;
61569;SDS011;47462;59.172;17.196;2022-09-13T00:13:47;2.03;;;1.70;;
61569;SDS011;47462;59.172;17.196;2022-09-13T00:18:40;5.78;;;1.70;;
61569;SDS011;47462;59.172;17.196;2022-09-13T00:21:06;3.63;;;1.38;;
61569;SDS011;47462;59.172;17.196;2022-09-13T00:23:34;4.07;;;1.48;;
61569;SDS011;47462;59.172;17.196;2022-09-13T00:28:35;4.60;;;1.40;;
61569;SDS011;47462;59.172;17.196;2022-09-13T00:31:01;2.97;;;1.30;;
61569;SDS011;47462;59.172;17.196;2022-09-13T00:33:29;3.25;;;1.80;;
61569;SDS011;47462;59.172;17.196;2022-09-13T00:35:55;4.28;;;1.65;;
61569;SDS011;47462;59.172;17.196;2022-09-13T00:38:20;4.55;;;1.60;;
61569;SDS011;47462;59.172;17.196;2022-09-13T00:40:46;3.65;;;1.33;;
61569;SDS011;47462;59.172;17.196;2022-09-13T00:43:15;4.15;;;1.35;;
61569;SDS011;47462;59.172;17.196;2022-09-13T00:45:42;5.00;;;1.73;;
61569;SDS011;47462;59.172;17.196;2022-09-13T00:50:40;4.40;;;1.73;;
61569;SDS011;47462;59.172;17.196;2022-09-13T00:53:13;3.53;;;1.42;;
61569;SDS011;47462;59.172;17.196;2022-09-13T00:55:45;1.70;;;1.35;;
61569;SDS011;47462;59.172;17.196;2022-09-13T00:58:20;1.80;;;1.30;;
61569;SDS011;47462;59.172;17.196;2022-09-13T01:00:52;3.65;;;1.63;;
61569;SDS011;47462;59.172;17.196;2022-09-13T01:03:19;4.30;;;1.30;;
61569;SDS011;47462;59.172;17.196;2022-09-13T01:05:50;1.90;;;1.20;;
61569;SDS011;47462;59.172;17.196;2022-09-13T01:08:22;4.07;;;1.48;;
61569;SDS011;47462;59.172;17.196;2022-09-13T01:10:51;2.67;;;1.45;;
61569;SDS011;47462;59.172;17.196;2022-09-13T01:13:20;3.22;;;1.60;;
61569;SDS011;47462;59.172;17.196;2022-09-13T01:15:48;3.63;;;1.65;;
61569;SDS011;47462;59.172;17.196;2022-09-13T01:18:14;6.10;;;2.20;;
61569;SDS011;47462;59.172;17.196;2022-09-13T01:32:03;3.25;;;1.70;;
61569;SDS011;47462;59.172;17.196;2022-09-13T01:34:42;3.83;;;2.20;;
61569;SDS011;47462;59.172;17.196;2022-09-13T01:37:26;4.93;;;1.58;;
61569;SDS011;47462;59.172;17.196;2022-09-13T01:45:15;5.78;;;1.70;;
61569;SDS011;47462;59.172;17.196;2022-09-13T01:50:33;3.40;;;1.58;;
61569;SDS011;47462;59.172;17.196;2022-09-13T01:55:50;3.92;;;1.80;;
61569;SDS011;47462;59.172;17.196;2022-09-13T02:01:02;3.22;;;1.70;;
61569;SDS011;47462;59.172;17.196;2022-09-13T02:03:32;3.30;;;1.95;;
61569;SDS011;47462;59.172;17.196;2022-09-13T02:06:23;6.05;;;2.00;;
61569;SDS011;47462;59.172;17.196;2022-09-13T02:08:56;4.60;;;2.10;;
61569;SDS011;47462;59.172;17.196;2022-09-13T02:11:25;3.30;;;1.80;;
61569;SDS011;47462;59.172;17.196;2022-09-13T02:19:01;4.00;;;1.95;;
61569;SDS011;47462;59.172;17.196;2022-09-13T02:21:35;6.22;;;2.10;;
61569;SDS011;47462;59.172;17.196;2022-09-13T02:26:29;3.33;;;1.73;;
61569;SDS011;47462;59.172;17.196;2022-09-13T02:28:57;3.10;;;2.10;;
61569;SDS011;47462;59.172;17.196;2022-09-13T02:31:38;4.20;;;2.10;;
61569;SDS011;47462;59.172;17.196;2022-09-13T02:34:14;3.90;;;2.25;;
61569;SDS011;47462;59.172;17.196;2022-09-13T02:36:46;4.05;;;2.35;;
61569;SDS011;47462;59.172;17.196;2022-09-13T02:39:17;3.95;;;2.00;;
61569;SDS011;47462;59.172;17.196;2022-09-13T02:41:50;4.80;;;2.85;;
61569;SDS011;47462;59.172;17.196;2022-09-13T02:52:39;6.82;;;2.55;;
61569;SDS011;47462;59.172;17.196;2022-09-13T02:55:20;6.32;;;2.63;;
61569;SDS011;47462;59.172;17.196;2022-09-13T03:00:37;5.75;;;2.67;;
61569;SDS011;47462;59.172;17.196;2022-09-13T03:03:04;4.70;;;2.65;;
61569;SDS011;47462;59.172;17.196;2022-09-13T03:05:33;4.65;;;2.20;;
61569;SDS011;47462;59.172;17.196;2022-09-13T03:07:58;3.95;;;2.25;;
61569;SDS011;47462;59.172;17.196;2022-09-13T03:10:25;2.35;;;2.15;;
61569;SDS011;47462;59.172;17.196;2022-09-13T03:13:06;5.72;;;2.33;;
61569;SDS011;47462;59.172;17.196;2022-09-13T03:24:23;2.40;;;1.92;;
61569;SDS011;47462;59.172;17.196;2022-09-13T03:27:01;2.13;;;2.00;;
61569;SDS011;47462;59.172;17.196;2022-09-13T03:37:22;2.85;;;1.85;;
61569;SDS011;47462;59.172;17.196;2022-09-13T03:39:56;1.60;;;1.50;;
61569;SDS011;47462;59.172;17.196;2022-09-13T03:45:06;4.93;;;1.80;;
61569;SDS011;47462;59.172;17.196;2022-09-13T03:47:33;2.95;;;1.83;;
61569;SDS011;47462;59.172;17.196;2022-09-13T03:50:03;2.33;;;1.77;;
61569;SDS011;47462;59.172;17.196;2022-09-13T03:52:31;3.63;;;1.83;;
61569;SDS011;47462;59.172;17.196;2022-09-13T03:57:23;2.25;;;1.80;;
61569;SDS011;47462;59.172;17.196;2022-09-13T04:02:18;3.78;;;1.60;;
61569;SDS011;47462;59.172;17.196;2022-09-13T04:04:46;3.95;;;2.03;;
61569;SDS011;47462;59.172;17.196;2022-09-13T04:07:13;3.97;;;1.80;;
61569;SDS011;47462;59.172;17.196;2022-09-13T04:09:40;2.80;;;1.95;;
61569;SDS011;47462;59.172;17.196;2022-09-13T04:12:06;3.70;;;1.83;;
61569;SDS011;47462;59.172;17.196;2022-09-13T04:14:34;3.22;;;2.00;;
61569;SDS011;47462;59.172;17.196;2022-09-13T04:17:00;2.45;;;1.90;;
61569;SDS011;47462;59.172;17.196;2022-09-13T04:19:25;3.20;;;2.05;;
61569;SDS011;47462;59.172;17.196;2022-09-13T04:24:18;5.25;;;1.83;;
61569;SDS011;47462;59.172;17.196;2022-09-13T04:29:12;2.90;;;1.80;;
61569;SDS011;47462;59.172;17.196;2022-09-13T04:31:37;2.47;;;1.80;;
61569;SDS011;47462;59.172;17.196;2022-09-13T04:34:03;4.00;;;1.92;;
61569;SDS011;47462;59.172;17.196;2022-09-13T04:36:29;3.58;;;1.90;;
61569;SDS011;47462;59.172;17.196;2022-09-13T04:41:21;4.80;;;1.70;;
61569;SDS011;47462;59.172;17.196;2022-09-13T04:46:14;3.50;;;2.00;;
61569;SDS011;47462;59.172;17.196;2022-09-13T04:48:40;2.92;;;1.90;;
61569;SDS011;47462;59.172;17.196;2022-09-13T04:51:06;3.15;;;1.92;;
61569;SDS011;47462;59.172;17.196;2022-09-13T04:53:32;5.32;;;1.60;;
61569;SDS011;47462;59.172;17.196;2022-09-13T04:56:01;4.28;;;1.70;;
61569;SDS011;47462;59.172;17.196;2022-09-13T04:58:28;2.60;;;1.85;;
61569;SDS011;47462;59.172;17.196;2022-09-13T05:00:59;6.03;;;2.45;;
61569;SDS011;47462;59.172;17.196;2022-09-13T05:03:29;3.35;;;1.83;;
61569;SDS011;47462;59.172;17.196;2022-09-13T05:05:59;1.80;;;1.58;;
61569;SDS011;47462;59.172;17.196;2022-09-13T05:08:26;2.78;;;1.80;;
61569;SDS011;47462;59.172;17.196;2022-09-13T05:10:51;3.05;;;1.42;;
61569;SDS011;47462;59.172;17.196;2022-09-13T05:15:42;3.45;;;1.67;;
61569;SDS011;47462;59.172;17.196;2022-09-13T05:18:07;3.30;;;1.60;;
61569;SDS011;47462;59.172;17.196;2022-09-13T05:20:32;3.67;;;1.92;;
61569;SDS011;47462;59.172;17.196;2022-09-13T05:25:23;3.17;;;1.77;;
61569;SDS011;47462;59.172;17.196;2022-09-13T05:30:14;5.57;;;1.52;;
61569;SDS011;47462;59.172;17.196;2022-09-13T05:35:05;3.08;;;1.48;;
61569;SDS011;47462;59.172;17.196;2022-09-13T05:37:32;3.90;;;1.55;;
61569;SDS011;47462;59.172;17.196;2022-09-13T05:39:57;2.63;;;1.83;;
61569;SDS011;47462;59.172;17.196;2022-09-13T05:42:23;1.70;;;1.25;;
61569;SDS011;47462;59.172;17.196;2022-09-13T05:47:13;5.03;;;1.70;;
61569;SDS011;47462;59.172;17.196;2022-09-13T05:49:39;2.85;;;1.58;;
61569;SDS011;47462;59.172;17.196;2022-09-13T05:52:04;3.58;;;1.83;;
61569;SDS011;47462;59.172;17.196;2022-09-13T05:54:30;2.75;;;2.00;;
61569;SDS011;47462;59.172;17.196;2022-09-13T05:56:56;3.63;;;2.13;;
61569;SDS011;47462;59.172;17.196;2022-09-13T05:59:22;4.95;;;1.90;;
61569;SDS011;47462;59.172;17.196;2022-09-13T06:01:47;2.83;;;2.20;;
61569;SDS011;47462;59.172;17.196;2022-09-13T06:06:38;4.78;;;1.80;;
61569;SDS011;47462;59.172;17.196;2022-09-13T06:09:04;4.95;;;2.40;;
61569;SDS011;47462;59.172;17.196;2022-09-13T06:11:30;5.15;;;2.15;;
61569;SDS011;47462;59.172;17.196;2022-09-13T06:13:56;3.60;;;2.08;;
61569;SDS011;47462;59.172;17.196;2022-09-13T06:16:21;3.42;;;2.05;;
61569;SDS011;47462;59.172;17.196;2022-09-13T06:18:47;5.85;;;2.45;;
61569;SDS011;47462;59.172;17.196;2022-09-13T06:21:14;5.18;;;2.22;;
61569;SDS011;47462;59.172;17.196;2022-09-13T06:23:45;6.50;;;2.40;;
61569;SDS011;47462;59.172;17.196;2022-09-13T06:26:12;6.13;;;2.10;;
61569;SDS011;47462;59.172;17.196;2022-09-13T06:28:40;6.70;;;2.05;;
61569;SDS011;47462;59.172;17.196;2022-09-13T06:31:07;4.47;;;1.63;;
61569;SDS011;47462;59.172;17.196;2022-09-13T06:33:38;4.18;;;1.83;;
61569;SDS011;47462;59.172;17.196;2022-09-13T06:36:05;3.67;;;2.00;;
61569;SDS011;47462;59.172;17.196;2022-09-13T06:38:33;4.28;;;1.40;;
61569;SDS011;47462;59.172;17.196;2022-09-13T06:41:02;3.38;;;1.90;;
61569;SDS011;47462;59.172;17.196;2022-09-13T06:43:35;3.03;;;1.80;;
61569;SDS011;47462;59.172;17.196;2022-09-13T06:46:02;2.42;;;1.70;;
61569;SDS011;47462;59.172;17.196;2022-09-13T06:48:30;5.07;;;2.53;;
61569;SDS011;47462;59.172;17.196;2022-09-13T06:50:57;3.83;;;2.30;;
61569;SDS011;47462;59.172;17.196;2022-09-13T06:53:24;4.80;;;2.22;;
61569;SDS011;47462;59.172;17.196;2022-09-13T06:55:58;2.63;;;2.20;;
61569;SDS011;47462;59.172;17.196;2022-09-13T06:58:31;4.75;;;2.38;;
61569;SDS011;47462;59.172;17.196;2022-09-13T07:01:05;5.00;;;2.67;;
61569;SDS011;47462;59.172;17.196;2022-09-13T07:03:45;5.40;;;2.22;;
61569;SDS011;47462;59.172;17.196;2022-09-13T07:06:16;4.88;;;2.30;;
61569;SDS011;47462;59.172;17.196;2022-09-13T07:08:46;3.42;;;2.25;;
61569;SDS011;47462;59.172;17.196;2022-09-13T07:11:13;3.55;;;1.85;;
61569;SDS011;47462;59.172;17.196;2022-09-13T07:13:42;1.65;;;1.40;;
61569;SDS011;47462;59.172;17.196;2022-09-13T07:16:13;2.60;;;1.30;;
61569;SDS011;47462;59.172;17.196;2022-09-13T07:18:38;3.97;;;1.70;;
61569;SDS011;47462;59.172;17.196;2022-09-13T07:21:07;4.75;;;1.58;;
61569;SDS011;47462;59.172;17.196;2022-09-13T07:23:35;2.30;;;1.33;;
61569;SDS011;47462;59.172;17.196;2022-09-13T07:26:02;2.72;;;1.40;;
61569;SDS011;47462;59.172;17.196;2022-09-13T07:33:33;4.00;;;1.52;;
61569;SDS011;47462;59.172;17.196;2022-09-13T07:35:59;4.95;;;2.00;;
61569;SDS011;47462;59.172;17.196;2022-09-13T07:38:26;1.35;;;1.25;;
61569;SDS011;47462;59.172;17.196;2022-09-13T07:40:52;3.22;;;1.35;;
61569;SDS011;47462;59.172;17.196;2022-09-13T07:43:19;3.75;;;1.50;;
61569;SDS011;47462;59.172;17.196;2022-09-13T07:45:45;3.25;;;1.33;;
61569;SDS011;47462;59.172;17.196;2022-09-13T07:48:11;3.63;;;1.48;;
61569;SDS011;47462;59.172;17.196;2022-09-13T07:50:36;3.88;;;1.52;;
61569;SDS011;47462;59.172;17.196;2022-09-13T07:53:02;4.47;;;1.42;;
61569;SDS011;47462;59.172;17.196;2022-09-13T07:55:28;2.75;;;1.10;;
61569;SDS011;47462;59.172;17.196;2022-09-13T07:57:55;2.25;;;0.95;;
61569;SDS011;47462;59.172;17.196;2022-09-13T08:00:21;3.47;;;0.90;;
61569;SDS011;47462;59.172;17.196;2022-09-13T08:02:48;4.45;;;1.30;;
61569;SDS011;47462;59.172;17.196;2022-09-13T08:05:13;2.33;;;1.02;;
61569;SDS011;47462;59.172;17.196;2022-09-13T08:07:39;2.03;;;1.00;;
61569;SDS011;47462;59.172;17.196;2022-09-13T08:12:30;1.95;;;0.82;;
61569;SDS011;47462;59.172;17.196;2022-09-13T08:14:55;1.20;;;0.98;;
61569;SDS011;47462;59.172;17.196;2022-09-13T08:17:21;2.53;;;0.80;;
61569;SDS011;47462;59.172;17.196;2022-09-13T08:19:46;1.95;;;1.05;;
61569;SDS011;47462;59.172;17.196;2022-09-13T08:22:12;2.83;;;0.90;;
61569;SDS011;47462;59.172;17.196;2022-09-13T08:27:03;2.92;;;0.95;;
61569;SDS011;47462;59.172;17.196;2022-09-13T08:29:28;2.38;;;0.93;;
61569;SDS011;47462;59.172;17.196;2022-09-13T08:31:54;2.35;;;0.80;;
61569;SDS011;47462;59.172;17.196;2022-09-13T08:34:19;3.93;;;0.90;;
61569;SDS011;47462;59.172;17.196;2022-09-13T08:36:45;5.60;;;1.20;;
61569;SDS011;47462;59.172;17.196;2022-09-13T08:39:11;4.50;;;1.40;;
61569;SDS011;47462;59.172;17.196;2022-09-13T08:49:57;2.47;;;1.40;;
61569;SDS011;47462;59.172;17.196;2022-09-13T08:52:29;3.58;;;1.20;;
61569;SDS011;47462;59.172;17.196;2022-09-13T08:55:01;0.88;;;0.82;;
61569;SDS011;47462;59.172;17.196;2022-09-13T08:57:42;7.63;;;1.30;;
61569;SDS011;47462;59.172;17.196;2022-09-13T09:03:01;2.70;;;1.17;;
61569;SDS011;47462;59.172;17.196;2022-09-13T09:05:45;5.30;;;1.08;;
61569;SDS011;47462;59.172;17.196;2022-09-13T09:08:14;4.60;;;1.23;;
61569;SDS011;47462;59.172;17.196;2022-09-13T09:10:45;3.58;;;1.33;;
61569;SDS011;47462;59.172;17.196;2022-09-13T09:13:25;2.40;;;0.70;;
61569;SDS011;47462;59.172;17.196;2022-09-13T09:16:00;3.58;;;1.00;;
61569;SDS011;47462;59.172;17.196;2022-09-13T09:21:05;3.72;;;1.05;;
61569;SDS011;47462;59.172;17.196;2022-09-13T09:23:53;3.58;;;1.13;;
61569;SDS011;47462;59.172;17.196;2022-09-13T09:26:20;5.43;;;1.63;;
61569;SDS011;47462;59.172;17.196;2022-09-13T09:28:53;5.72;;;1.50;;
61569;SDS011;47462;59.172;17.196;2022-09-13T09:37:20;5.55;;;1.38;;
61569;SDS011;47462;59.172;17.196;2022-09-13T09:39:51;3.45;;;1.55;;
61569;SDS011;47462;59.172;17.196;2022-09-13T09:42:21;4.72;;;1.60;;
61569;SDS011;47462;59.172;17.196;2022-09-13T09:44:51;3.88;;;1.67;;
61569;SDS011;47462;59.172;17.196;2022-09-13T09:47:25;5.93;;;1.55;;
61569;SDS011;47462;59.172;17.196;2022-09-13T09:50:03;4.68;;;1.95;;
61569;SDS011;47462;59.172;17.196;2022-09-13T09:52:43;5.60;;;1.80;;
61569;SDS011;47462;59.172;17.196;2022-09-13T09:55:14;8.15;;;2.05;;
61569;SDS011;47462;59.172;17.196;2022-09-13T10:00:19;7.38;;;2.30;;
61569;SDS011;47462;59.172;17.196;2022-09-13T10:02:48;4.50;;;1.75;;
61569;SDS011;47462;59.172;17.196;2022-09-13T10:05:18;4.32;;;2.00;;
61569;SDS011;47462;59.172;17.196;2022-09-13T10:07:57;9.40;;;2.38;;
61569;SDS011;47462;59.172;17.196;2022-09-13T10:13:01;7.88;;;2.33;;
61569;SDS011;47462;59.172;17.196;2022-09-13T10:15:32;7.47;;;2.70;;
61569;SDS011;47462;59.172;17.196;2022-09-13T10:18:03;8.32;;;2.58;;
61569;SDS011;47462;59.172;17.196;2022-09-13T10:20:40;7.10;;;2.13;;
61569;SDS011;47462;59.172;17.196;2022-09-13T10:25:38;5.35;;;2.05;;
61569;SDS011;47462;59.172;17.196;2022-09-13T10:28:05;5.57;;;1.73;;
61569;SDS011;47462;59.172;17.196;2022-09-13T10:30:43;6.53;;;1.92;;
61569;SDS011;47462;59.172;17.196;2022-09-13T10:36:03;1.65;;;1.33;;
61569;SDS011;47462;59.172;17.196;2022-09-13T10:38:36;4.20;;;1.60;;
61569;SDS011;47462;59.172;17.196;2022-09-13T10:41:25;4.10;;;1.60;;
61569;SDS011;47462;59.172;17.196;2022-09-13T10:43:57;2.55;;;1.30;;
61569;SDS011;47462;59.172;17.196;2022-09-13T10:46:26;2.58;;;1.15;;
61569;SDS011;47462;59.172;17.196;2022-09-13T10:48:55;2.55;;;1.60;;
61569;SDS011;47462;59.172;17.196;2022-09-13T10:56:36;5.03;;;2.15;;
61569;SDS011;47462;59.172;17.196;2022-09-13T11:01:43;4.15;;;2.00;;
61569;SDS011;47462;59.172;17.196;2022-09-13T11:13:06;5.13;;;2.55;;
61569;SDS011;47462;59.172;17.196;2022-09-13T11:15:53;8.27;;;3.28;;
61569;SDS011;47462;59.172;17.196;2022-09-13T11:31:34;9.50;;;4.97;;
61569;SDS011;47462;59.172;17.196;2022-09-13T11:53:34;9.48;;;3.58;;
61569;SDS011;47462;59.172;17.196;2022-09-13T11:56:13;6.97;;;3.47;;
61569;SDS011;47462;59.172;17.196;2022-09-13T11:59:07;4.47;;;3.00;;
61569;SDS011;47462;59.172;17.196;2022-09-13T12:01:44;5.50;;;3.17;;
61569;SDS011;47462;59.172;17.196;2022-09-13T12:07:14;12.18;;;4.50;;
61569;SDS011;47462;59.172;17.196;2022-09-13T12:12:22;5.53;;;2.03;;
61569;SDS011;47462;59.172;17.196;2022-09-13T12:15:05;5.13;;;1.17;;
61569;SDS011;47462;59.172;17.196;2022-09-13T12:17:39;1.60;;;1.00;;
61569;SDS011;47462;59.172;17.196;2022-09-13T12:20:13;1.95;;;0.80;;
61569;SDS011;47462;59.172;17.196;2022-09-13T12:22:51;4.13;;;1.27;;
61569;SDS011;47462;59.172;17.196;2022-09-13T12:25:20;3.40;;;1.17;;
61569;SDS011;47462;59.172;17.196;2022-09-13T12:27:58;2.85;;;1.05;;
61569;SDS011;47462;59.172;17.196;2022-09-13T12:30:47;8.95;;;1.38;;
61569;SDS011;47462;59.172;17.196;2022-09-13T12:33:18;2.92;;;1.20;;
61569;SDS011;47462;59.172;17.196;2022-09-13T12:36:10;5.45;;;1.77;;
61569;SDS011;47462;59.172;17.196;2022-09-13T12:38:55;3.67;;;1.75;;
61569;SDS011;47462;59.172;17.196;2022-09-13T12:41:40;5.35;;;1.95;;
61569;SDS011;47462;59.172;17.196;2022-09-13T12:50:15;2.95;;;1.20;;
61569;SDS011;47462;59.172;17.196;2022-09-13T13:01:14;2.65;;;1.48;;
61569;SDS011;47462;59.172;17.196;2022-09-13T13:06:51;4.55;;;1.38;;
61569;SDS011;47462;59.172;17.196;2022-09-13T13:09:30;1.95;;;1.13;;
61569;SDS011;47462;59.172;17.196;2022-09-13T13:11:59;1.88;;;1.00;;
61569;SDS011;47462;59.172;17.196;2022-09-13T13:14:29;1.80;;;1.05;;
61569;SDS011;47462;59.172;17.196;2022-09-13T13:20:37;2.00;;;1.20;;
61569;SDS011;47462;59.172;17.196;2022-09-13T13:23:16;2.50;;;1.30;;
61569;SDS011;47462;59.172;17.196;2022-09-13T13:29:04;4.15;;;2.45;;
61569;SDS011;47462;59.172;17.196;2022-09-13T13:31:38;2.13;;;1.00;;
61569;SDS011;47462;59.172;17.196;2022-09-13T13:39:11;1.73;;;0.80;;
61569;SDS011;47462;59.172;17.196;2022-09-13T13:41:52;1.85;;;0.77;;
61569;SDS011;47462;59.172;17.196;2022-09-13T13:57:30;2.97;;;0.90;;
61569;SDS011;47462;59.172;17.196;2022-09-13T14:00:09;1.75;;;0.75;;
61569;SDS011;47462;59.172;17.196;2022-09-13T14:02:43;4.00;;;1.20;;
61569;SDS011;47462;59.172;17.196;2022-09-13T14:13:19;1.58;;;0.82;;
61569;SDS011;47462;59.172;17.196;2022-09-13T14:15:56;3.53;;;0.77;;
61569;SDS011;47462;59.172;17.196;2022-09-13T14:21:31;2.50;;;0.95;;
61569;SDS011;47462;59.172;17.196;2022-09-13T14:26:46;1.48;;;0.70;;
61569;SDS011;47462;59.172;17.196;2022-09-13T14:29:16;1.55;;;0.50;;
61569;SDS011;47462;59.172;17.196;2022-09-13T14:31:50;3.78;;;0.52;;
61569;SDS011;47462;59.172;17.196;2022-09-13T14:34:30;1.27;;;0.50;;
61569;SDS011;47462;59.172;17.196;2022-09-13T14:37:02;2.15;;;0.60;;
61569;SDS011;47462;59.172;17.196;2022-09-13T14:39:39;1.55;;;0.65;;
61569;SDS011;47462;59.172;17.196;2022-09-13T14:42:21;2.72;;;0.90;;
61569;SDS011;47462;59.172;17.196;2022-09-13T14:47:21;2.72;;;0.60;;
61569;SDS011;47462;59.172;17.196;2022-09-13T14:49:50;4.85;;;0.60;;
61569;SDS011;47462;59.172;17.196;2022-09-13T14:52:20;1.08;;;0.63;;
61569;SDS011;47462;59.172;17.196;2022-09-13T14:54:50;3.88;;;0.60;;
61569;SDS011;47462;59.172;17.196;2022-09-13T14:57:28;5.05;;;0.68;;
61569;SDS011;47462;59.172;17.196;2022-09-13T15:00:01;1.77;;;0.50;;
61569;SDS011;47462;59.172;17.196;2022-09-13T15:02:34;5.28;;;0.90;;
61569;SDS011;47462;59.172;17.196;2022-09-13T15:05:03;3.67;;;0.70;;
61569;SDS011;47462;59.172;17.196;2022-09-13T15:07:36;2.13;;;0.60;;
61569;SDS011;47462;59.172;17.196;2022-09-13T15:12:52;2.03;;;0.47;;
61569;SDS011;47462;59.172;17.196;2022-09-13T15:17:59;0.75;;;0.52;;
61569;SDS011;47462;59.172;17.196;2022-09-13T15:20:28;1.58;;;0.55;;
61569;SDS011;47462;59.172;17.196;2022-09-13T15:23:30;2.38;;;0.70;;
61569;SDS011;47462;59.172;17.196;2022-09-13T15:26:09;1.40;;;0.70;;
61569;SDS011;47462;59.172;17.196;2022-09-13T15:31:05;1.95;;;0.60;;
61569;SDS011;47462;59.172;17.196;2022-09-13T15:33:32;4.82;;;0.68;;
61569;SDS011;47462;59.172;17.196;2022-09-13T15:38:59;4.22;;;0.60;;
61569;SDS011;47462;59.172;17.196;2022-09-13T15:41:28;2.30;;;0.68;;
61569;SDS011;47462;59.172;17.196;2022-09-13T15:43:56;3.13;;;0.80;;
61569;SDS011;47462;59.172;17.196;2022-09-13T15:46:22;3.35;;;0.95;;
61569;SDS011;47462;59.172;17.196;2022-09-13T15:51:18;0.88;;;0.57;;
61569;SDS011;47462;59.172;17.196;2022-09-13T15:56:21;1.80;;;0.63;;
61569;SDS011;47462;59.172;17.196;2022-09-13T15:58:51;1.67;;;0.88;;
61569;SDS011;47462;59.172;17.196;2022-09-13T16:03:42;2.17;;;0.65;;
61569;SDS011;47462;59.172;17.196;2022-09-13T16:08:37;3.55;;;0.60;;
61569;SDS011;47462;59.172;17.196;2022-09-13T16:11:03;1.25;;;0.65;;
61569;SDS011;47462;59.172;17.196;2022-09-13T16:15:54;3.03;;;0.88;;
61569;SDS011;47462;59.172;17.196;2022-09-13T16:18:21;2.95;;;0.60;;
61569;SDS011;47462;59.172;17.196;2022-09-13T16:23:12;4.32;;;0.70;;
61569;SDS011;47462;59.172;17.196;2022-09-13T16:25:38;1.45;;;0.60;;
61569;SDS011;47462;59.172;17.196;2022-09-13T16:30:29;3.92;;;0.95;;
61569;SDS011;47462;59.172;17.196;2022-09-13T16:32:56;1.73;;;0.73;;
61569;SDS011;47462;59.172;17.196;2022-09-13T16:35:23;1.92;;;0.95;;
61569;SDS011;47462;59.172;17.196;2022-09-13T16:37:52;1.23;;;0.90;;
61569;SDS011;47462;59.172;17.196;2022-09-13T16:40:18;2.63;;;1.00;;
61569;SDS011;47462;59.172;17.196;2022-09-13T16:42:44;2.40;;;0.80;;
61569;SDS011;47462;59.172;17.196;2022-09-13T16:45:11;2.53;;;1.05;;
61569;SDS011;47462;59.172;17.196;2022-09-13T16:47:36;4.65;;;0.73;;
61569;SDS011;47462;59.172;17.196;2022-09-13T16:50:03;2.60;;;0.88;;
61569;SDS011;47462;59.172;17.196;2022-09-13T16:52:30;2.15;;;0.70;;
61569;SDS011;47462;59.172;17.196;2022-09-13T16:54:56;1.80;;;0.93;;
61569;SDS011;47462;59.172;17.196;2022-09-13T16:57:21;4.38;;;0.80;;
61569;SDS011;47462;59.172;17.196;2022-09-13T16:59:48;4.40;;;1.23;;
61569;SDS011;47462;59.172;17.196;2022-09-13T17:02:15;2.08;;;0.80;;
61569;SDS011;47462;59.172;17.196;2022-09-13T17:04:40;1.95;;;1.00;;
61569;SDS011;47462;59.172;17.196;2022-09-13T17:07:05;2.28;;;1.00;;
61569;SDS011;47462;59.172;17.196;2022-09-13T17:11:59;6.18;;;1.50;;
61569;SDS011;47462;59.172;17.196;2022-09-13T17:14:25;3.42;;;1.10;;
61569;SDS011;47462;59.172;17.196;2022-09-13T17:19:19;2.58;;;0.82;;
61569;SDS011;47462;59.172;17.196;2022-09-13T17:21:50;3.80;;;0.88;;
61569;SDS011;47462;59.172;17.196;2022-09-13T17:24:16;3.03;;;0.80;;
61569;SDS011;47462;59.172;17.196;2022-09-13T17:26:42;3.72;;;0.75;;
61569;SDS011;47462;59.172;17.196;2022-09-13T17:29:11;3.20;;;0.80;;
61569;SDS011;47462;59.172;17.196;2022-09-13T17:31:38;1.63;;;0.43;;
61569;SDS011;47462;59.172;17.196;2022-09-13T17:34:03;2.53;;;0.63;;
61569;SDS011;47462;59.172;17.196;2022-09-13T17:36:29;4.10;;;0.60;;
61569;SDS011;47462;59.172;17.196;2022-09-13T17:41:21;3.08;;;0.85;;
61569;SDS011;47462;59.172;17.196;2022-09-13T17:43:47;2.65;;;0.70;;
61569;SDS011;47462;59.172;17.196;2022-09-13T17:46:31;2.72;;;0.60;;
61569;SDS011;47462;59.172;17.196;2022-09-13T17:48:57;4.47;;;0.77;;
61569;SDS011;47462;59.172;17.196;2022-09-13T17:51:25;4.57;;;0.80;;
61569;SDS011;47462;59.172;17.196;2022-09-13T17:53:56;1.80;;;0.60;;
61569;SDS011;47462;59.172;17.196;2022-09-13T17:56:25;7.07;;;0.80;;
61569;SDS011;47462;59.172;17.196;2022-09-13T17:58:56;4.40;;;1.58;;
61569;SDS011;47462;59.172;17.196;2022-09-13T18:01:27;6.00;;;1.15;;
61569;SDS011;47462;59.172;17.196;2022-09-13T18:03:53;4.90;;;0.70;;
61569;SDS011;47462;59.172;17.196;2022-09-13T18:06:19;5.05;;;0.73;;
61569;SDS011;47462;59.172;17.196;2022-09-13T18:08:45;2.10;;;0.60;;
61569;SDS011;47462;59.172;17.196;2022-09-13T18:16:09;2.10;;;0.80;;
61569;SDS011;47462;59.172;17.196;2022-09-13T18:18:36;2.60;;;0.77;;
61569;SDS011;47462;59.172;17.196;2022-09-13T18:21:03;4.78;;;1.05;;
61569;SDS011;47462;59.172;17.196;2022-09-13T18:23:31;2.92;;;0.80;;
61569;SDS011;47462;59.172;17.196;2022-09-13T18:26:01;4.57;;;0.98;;
61569;SDS011;47462;59.172;17.196;2022-09-13T18:28:28;4.22;;;0.90;;
61569;SDS011;47462;59.172;17.196;2022-09-13T18:30:56;1.85;;;0.90;;
61569;SDS011;47462;59.172;17.196;2022-09-13T18:33:23;2.83;;;0.95;;
61569;SDS011;47462;59.172;17.196;2022-09-13T18:38:22;3.28;;;1.10;;
61569;SDS011;47462;59.172;17.196;2022-09-13T18:40:56;2.47;;;1.90;;
61569;SDS011;47462;59.172;17.196;2022-09-13T18:43:25;6.13;;;1.20;;
61569;SDS011;47462;59.172;17.196;2022-09-13T18:45:54;2.05;;;1.20;;
61569;SDS011;47462;59.172;17.196;2022-09-13T18:48:21;1.73;;;1.20;;
61569;SDS011;47462;59.172;17.196;2022-09-13T18:50:46;1.80;;;1.08;;
61569;SDS011;47462;59.172;17.196;2022-09-13T18:53:11;2.95;;;1.42;;
61569;SDS011;47462;59.172;17.196;2022-09-13T18:55:37;7.43;;;1.25;;
61569;SDS011;47462;59.172;17.196;2022-09-13T18:58:02;1.92;;;0.88;;
61569;SDS011;47462;59.172;17.196;2022-09-13T19:02:54;3.70;;;1.00;;
61569;SDS011;47462;59.172;17.196;2022-09-13T19:05:19;3.10;;;1.10;;
61569;SDS011;47462;59.172;17.196;2022-09-13T19:07:44;5.47;;;1.15;;
61569;SDS011;47462;59.172;17.196;2022-09-13T19:10:10;3.20;;;1.07;;
61569;SDS011;47462;59.172;17.196;2022-09-13T19:12:35;5.30;;;1.25;;
61569;SDS011;47462;59.172;17.196;2022-09-13T19:15:00;3.42;;;1.00;;
61569;SDS011;47462;59.172;17.196;2022-09-13T19:17:26;7.57;;;1.38;;
61569;SDS011;47462;59.172;17.196;2022-09-13T19:22:16;4.03;;;0.90;;
61569;SDS011;47462;59.172;17.196;2022-09-13T19:24:42;1.92;;;1.10;;
61569;SDS011;47462;59.172;17.196;2022-09-13T19:27:07;3.50;;;0.90;;
61569;SDS011;47462;59.172;17.196;2022-09-13T19:29:33;4.25;;;0.93;;
61569;SDS011;47462;59.172;17.196;2022-09-13T19:31:58;4.43;;;1.00;;
61569;SDS011;47462;59.172;17.196;2022-09-13T19:34:24;4.97;;;1.08;;
61569;SDS011;47462;59.172;17.196;2022-09-13T19:36:50;3.28;;;1.10;;
61569;SDS011;47462;59.172;17.196;2022-09-13T19:39:21;4.55;;;1.25;;
61569;SDS011;47462;59.172;17.196;2022-09-13T19:41:46;2.53;;;0.82;;
61569;SDS011;47462;59.172;17.196;2022-09-13T19:44:12;2.30;;;0.70;;
61569;SDS011;47462;59.172;17.196;2022-09-13T19:46:38;3.72;;;1.17;;
61569;SDS011;47462;59.172;17.196;2022-09-13T19:49:05;2.88;;;0.85;;